Aviation Digital Data Service (ADDS)

Output produced by METARs form (0714 UTC 26 March 2017)
found at http://aviationweather.gov/adds/metars/
 
KFRG 260703Z AUTO 05004KT 10SM OVC015 04/02 A3042 RMK AO2 RAE0655 P0000 T00440022
KFRG 260653Z AUTO 06006KT 10SM -RA OVC013 04/02 A3041 RMK AO2 RAB37 SLP299 P0001 T00440022
KISP 260710Z AUTO 06008KT 10SM FEW018 FEW023 OVC050 04/02 A3041 RMK AO2 T00440022
KISP 260656Z AUTO 05007KT 10SM SCT013 BKN023 OVC055 04/02 A3041 RMK AO2 SLP297 T00440022
KISP 260523Z 2606/2706 05010KT P6SM BKN012 
     FM261400 08013KT P6SM BKN025 OVC050 
     FM262200 09013KT 5SM -RA BR OVC015 
     FM270200 07009KT 3SM -DZ BR SCT004 OVC008
       
KJFK 260651Z 05007KT 10SM -RA OVC015 06/03 A3043 RMK AO2 RAB18 SLP302 P0001 T00560028
KJFK 260523Z 2606/2712 06007KT P6SM BKN015 OVC025 
     FM260900 06011KT P6SM OVC020 
     FM261100 07011KT P6SM SCT025 OVC035 
     FM261300 08013KT 6SM -RA OVC025 
     FM262000 09013G18KT 5SM -RA BR SCT008 OVC015 
     FM270200 09010KT 3SM -DZ BR SCT004 OVC008 
     FM271100 12008KT 3SM -DZ BR SCT004 OVC008
       
KBDR 260652Z AUTO 03008KT 10SM OVC110 04/01 A3044 RMK AO2 SLP306 T00390006
KBDR 260523Z 2606/2706 05010KT P6SM SCT035 BKN060 
     TEMPO 2609/2612 5SM BR 
     FM261400 07012KT P6SM SCT025 OVC050 
     FM261800 08013G19KT P6SM BKN025 OVC050 
     FM262200 09012G18KT 6SM -DZ BR BKN015 OVC035 
     FM270200 07009KT 3SM -DZ BR SCT004 OVC008